Terminal Aerodrome Forecast
Issued by NWS Northern Indiana

Home | Current Version | Previous Version | Graphics & Text | Print | Product List | Glossary On
Versions: 1 2 3 4 5 6 7 8 9 10 11 12 13
000
FTUS43 KIWX 251700 RRA
TAFFWA
TAF
KFWA 251745Z 2518/2618 07021G28KT 1SM -SN BR OVC007
      TEMPO 2519/2523 1/2SM SN BLSN VV003
     FM252300 05022G27KT 1SM -SN BLSN OVC010
     FM260600 04014KT P6SM SCT010 BKN020
     FM261000 35008KT P6SM SCT020=

USA.gov is the U.S. government's official web portal to all federal, state and local government web resources and services.